createdAt,value
2017-08-18T00:00:57.805Z,91.80
2017-08-18T00:03:25.441Z,91.90
2017-08-18T00:05:53.046Z,91.90
2017-08-18T00:08:21.404Z,92.00
2017-08-18T00:10:49.031Z,92.00
2017-08-18T00:13:16.628Z,91.90
2017-08-18T00:15:44.212Z,91.90
2017-08-18T00:18:11.866Z,92.00
2017-08-18T00:20:39.452Z,91.90
2017-08-18T00:23:07.030Z,91.90
2017-08-18T00:25:34.657Z,91.90
2017-08-18T00:28:02.234Z,91.90
2017-08-18T00:30:29.828Z,92.00
2017-08-18T00:32:57.449Z,92.00
2017-08-18T00:35:25.822Z,91.90
2017-08-18T00:37:54.185Z,92.00
2017-08-18T00:40:21.974Z,92.00
2017-08-18T00:42:49.546Z,92.10
2017-08-18T00:45:17.153Z,91.90
2017-08-18T00:47:44.768Z,91.90
2017-08-18T00:50:13.134Z,91.90
2017-08-18T00:52:40.728Z,91.90
2017-08-18T00:55:08.540Z,91.90
2017-08-18T00:57:36.132Z,91.80
2017-08-18T01:00:03.721Z,91.90
2017-08-18T01:02:31.365Z,91.90
2017-08-18T01:04:58.949Z,91.90
2017-08-18T01:07:26.550Z,92.00
2017-08-18T01:09:54.191Z,92.10
2017-08-18T01:12:21.781Z,92.10
2017-08-18T01:14:49.391Z,92.10
2017-08-18T01:17:17.028Z,92.10
2017-08-18T01:19:45.389Z,92.10
2017-08-18T01:22:13.740Z,92.10
2017-08-18T01:24:41.381Z,92.10
2017-08-18T01:27:09.735Z,92.20
2017-08-18T01:29:37.333Z,92.20
2017-08-18T01:32:05.004Z,92.20
2017-08-18T01:34:32.605Z,92.10
2017-08-18T01:37:00.197Z,92.10
2017-08-18T01:39:27.823Z,92.20
2017-08-18T01:41:55.424Z,92.10
2017-08-18T01:44:23.780Z,92.20
2017-08-18T01:46:51.412Z,92.20
2017-08-18T01:49:19.000Z,92.20
2017-08-18T01:51:46.575Z,92.30
2017-08-18T01:54:14.199Z,92.30
2017-08-18T01:56:41.784Z,92.30
2017-08-18T01:59:09.373Z,92.30
2017-08-18T02:01:37.033Z,92.30
2017-08-18T02:04:04.620Z,92.40
2017-08-18T02:06:32.211Z,92.50
2017-08-18T02:08:59.831Z,92.50
2017-08-18T02:11:27.436Z,92.60
2017-08-18T02:13:55.024Z,92.50
2017-08-18T02:16:22.778Z,92.60
2017-08-18T02:18:50.355Z,92.70
2017-08-18T02:21:17.954Z,92.60
2017-08-18T02:23:45.579Z,92.50
2017-08-18T02:26:13.172Z,92.50
2017-08-18T02:28:40.737Z,92.50
2017-08-18T02:31:08.574Z,92.50
2017-08-18T02:33:36.164Z,92.40
2017-08-18T02:36:03.752Z,92.40
2017-08-18T02:38:31.387Z,92.40
2017-08-18T02:40:58.959Z,92.50
2017-08-18T02:43:26.539Z,92.50
2017-08-18T02:45:54.198Z,92.50
2017-08-18T02:48:21.789Z,92.40
2017-08-18T02:50:49.371Z,92.30
2017-08-18T02:53:16.996Z,92.30
2017-08-18T02:55:44.583Z,92.20
2017-08-18T02:58:12.160Z,92.30
2017-08-18T03:00:39.984Z,92.20
2017-08-18T03:03:08.336Z,92.20
2017-08-18T03:05:36.700Z,92.40
2017-08-18T03:08:04.340Z,92.30
2017-08-18T03:10:31.936Z,92.30
2017-08-18T03:12:59.528Z,92.20
2017-08-18T03:15:27.934Z,92.70
2017-08-18T03:17:55.538Z,92.30
2017-08-18T03:20:23.129Z,92.30
2017-08-18T03:22:50.770Z,92.30
2017-08-18T03:25:18.374Z,92.30
2017-08-18T03:27:46.732Z,92.40
2017-08-18T03:30:15.150Z,92.50
2017-08-18T03:32:42.726Z,92.40
2017-08-18T03:35:10.298Z,92.40
2017-08-18T03:37:37.945Z,92.40
2017-08-18T03:40:05.536Z,92.40
2017-08-18T03:42:33.127Z,92.50
2017-08-18T03:45:00.764Z,92.50
2017-08-18T03:47:29.124Z,92.60
2017-08-18T03:49:56.707Z,92.60
2017-08-18T03:52:24.322Z,92.60
2017-08-18T03:54:51.930Z,92.70
2017-08-18T03:57:19.522Z,92.70
2017-08-18T03:59:47.161Z,92.70
2017-08-18T04:02:14.744Z,92.70
2017-08-18T04:04:42.330Z,92.70
2017-08-18T04:07:09.962Z,92.70
2017-08-18T04:09:37.534Z,92.70
2017-08-18T04:12:05.136Z,92.80
2017-08-18T04:14:32.777Z,92.90
2017-08-18T04:17:00.375Z,92.90
2017-08-18T04:19:27.965Z,92.90
2017-08-18T04:21:55.634Z,92.80
2017-08-18T04:24:23.225Z,92.70
2017-08-18T04:26:50.812Z,92.70
2017-08-18T04:29:18.460Z,92.70
2017-08-18T04:31:46.051Z,92.70
2017-08-18T04:34:13.662Z,92.60
2017-08-18T04:36:42.073Z,92.80
2017-08-18T04:39:09.656Z,92.40
2017-08-18T04:41:37.248Z,92.30
2017-08-18T04:44:04.873Z,92.20
2017-08-18T04:46:32.462Z,92.10
2017-08-18T04:49:00.080Z,92.00
2017-08-18T04:51:27.790Z,91.80
2017-08-18T04:53:55.380Z,91.70
2017-08-18T04:56:22.997Z,91.30
2017-08-18T04:58:51.381Z,90.80
2017-08-18T05:01:18.954Z,90.80
2017-08-18T05:03:46.541Z,90.60
2017-08-18T05:06:14.957Z,90.10
2017-08-18T05:08:42.556Z,90.10
2017-08-18T05:11:10.898Z,90.00
2017-08-18T05:13:38.548Z,89.80
2017-08-18T05:16:06.126Z,89.50
2017-08-18T05:18:33.729Z,89.30
2017-08-18T05:21:01.348Z,89.30
2017-08-18T05:23:28.946Z,89.50
2017-08-18T05:25:57.291Z,89.80
2017-08-18T05:28:25.701Z,90.30
2017-08-18T05:30:53.285Z,90.00
2017-08-18T05:33:20.892Z,90.00
2017-08-18T05:35:48.534Z,90.40
2017-08-18T05:38:16.132Z,90.30
2017-08-18T05:40:43.729Z,90.20
2017-08-18T05:43:11.529Z,90.10
2017-08-18T05:45:39.878Z,90.10
2017-08-18T05:48:07.490Z,90.10
2017-08-18T05:50:35.121Z,90.10
2017-08-18T05:53:02.699Z,90.20
2017-08-18T05:55:30.284Z,90.00
2017-08-18T05:57:59.027Z,90.00
2017-08-18T06:00:26.630Z,90.00
2017-08-18T06:02:54.228Z,90.00
2017-08-18T06:05:22.624Z,89.80
2017-08-18T06:07:50.417Z,89.80
2017-08-18T06:10:18.019Z,89.90
2017-08-18T06:12:45.657Z,89.40
2017-08-18T06:15:13.252Z,89.40
2017-08-18T06:17:40.861Z,89.30
2017-08-18T06:20:08.503Z,89.20
2017-08-18T06:22:36.091Z,89.10
2017-08-18T06:25:03.685Z,88.70
2017-08-18T06:27:31.311Z,89.60
2017-08-18T06:29:59.642Z,88.80
2017-08-18T06:32:27.228Z,88.80
2017-08-18T06:34:54.863Z,88.40
2017-08-18T06:37:23.223Z,87.00
2017-08-18T06:39:50.812Z,87.00
2017-08-18T06:42:18.445Z,87.40
2017-08-18T06:44:46.054Z,87.90
2017-08-18T06:47:14.400Z,86.30
2017-08-18T06:49:42.045Z,86.10
2017-08-18T06:52:09.655Z,86.10
2017-08-18T06:54:37.249Z,85.40
2017-08-18T06:57:05.715Z,83.70
2017-08-18T06:59:34.076Z,83.10
2017-08-18T07:02:02.430Z,83.10
2017-08-18T07:04:30.081Z,83.10
2017-08-18T07:06:58.486Z,83.10
2017-08-18T07:09:26.071Z,83.10
2017-08-18T07:11:53.750Z,82.90
2017-08-18T07:14:21.337Z,82.80
2017-08-18T07:16:48.946Z,83.00
2017-08-18T07:19:16.567Z,82.10
2017-08-18T07:21:44.938Z,81.00
2017-08-18T07:24:12.538Z,80.90
2017-08-18T07:26:40.160Z,79.80
2017-08-18T07:29:07.775Z,78.80
2017-08-18T07:31:36.119Z,77.30
2017-08-18T07:34:03.765Z,77.30
2017-08-18T07:36:31.356Z,76.50
2017-08-18T07:38:59.205Z,75.40
2017-08-18T07:41:56.832Z,74.70
2017-08-18T07:44:24.889Z,74.20
2017-08-18T07:46:52.481Z,73.80
2017-08-18T07:49:20.128Z,73.60
2017-08-18T07:51:47.730Z,74.30
2017-08-18T07:54:15.324Z,73.40
2017-08-18T07:56:42.953Z,72.80
2017-08-18T07:59:10.536Z,72.70
2017-08-18T08:01:38.885Z,73.40
2017-08-18T08:04:06.502Z,73.30
2017-08-18T08:06:34.084Z,73.80
2017-08-18T08:09:02.438Z,74.90
2017-08-18T08:11:30.071Z,74.90
2017-08-18T08:13:57.677Z,74.80
2017-08-18T08:16:25.275Z,74.50
2017-08-18T08:18:53.668Z,73.90
2017-08-18T08:21:21.242Z,73.20
2017-08-18T08:23:48.832Z,73.70
2017-08-18T08:26:16.482Z,73.60
2017-08-18T08:28:44.065Z,73.80
2017-08-18T08:31:11.666Z,73.80
2017-08-18T08:33:39.330Z,74.20
2017-08-18T08:36:06.916Z,74.30
2017-08-18T08:38:34.486Z,73.80
2017-08-18T08:41:02.112Z,74.00
2017-08-18T08:43:29.699Z,73.30
2017-08-18T08:45:58.054Z,73.00
2017-08-18T08:48:26.491Z,73.20
2017-08-18T08:50:54.094Z,73.10
2017-08-18T08:53:21.676Z,73.90
2017-08-18T08:55:49.322Z,74.80
2017-08-18T08:58:16.913Z,75.60
2017-08-18T09:00:44.505Z,75.80
2017-08-18T09:03:12.158Z,76.40
2017-08-18T09:05:39.738Z,76.30
2017-08-18T09:08:08.088Z,76.60
2017-08-18T09:10:36.506Z,76.90
2017-08-18T09:13:04.087Z,76.90
2017-08-18T09:15:31.677Z,77.50
2017-08-18T09:17:59.502Z,77.60
2017-08-18T09:20:27.870Z,77.70
2017-08-18T09:22:55.465Z,77.60
2017-08-18T09:25:23.090Z,78.50
2017-08-18T09:27:50.699Z,78.60
2017-08-18T09:30:18.269Z,78.90
2017-08-18T09:32:45.912Z,79.20
2017-08-18T09:35:13.514Z,78.70
2017-08-18T09:37:41.096Z,77.90
2017-08-18T09:40:08.741Z,78.00
2017-08-18T09:42:36.342Z,76.70
2017-08-18T09:45:04.718Z,77.80
2017-08-18T09:47:33.127Z,77.50
2017-08-18T09:50:12.578Z,77.50
2017-08-18T09:52:52.130Z,78.00
2017-08-18T09:55:31.565Z,78.10
2017-08-18T09:58:11.187Z,77.20
2017-08-18T10:00:38.816Z,77.70
2017-08-18T10:03:07.232Z,77.10
2017-08-18T10:05:34.890Z,77.00
2017-08-18T10:08:02.489Z,77.30
2017-08-18T10:10:30.080Z,77.80
2017-08-18T10:12:57.956Z,78.20
2017-08-18T10:15:25.556Z,78.00
2017-08-18T10:17:53.134Z,78.20
2017-08-18T10:20:20.761Z,77.80
2017-08-18T10:22:48.355Z,77.90
2017-08-18T10:25:15.983Z,78.30
2017-08-18T10:27:43.620Z,78.20
2017-08-18T10:30:11.212Z,78.70
2017-08-18T10:32:38.796Z,78.70
2017-08-18T10:35:06.432Z,79.30
2017-08-18T10:37:34.028Z,79.00
2017-08-18T10:40:01.670Z,79.60
2017-08-18T10:42:29.322Z,79.70
2017-08-18T10:44:56.931Z,79.20
2017-08-18T10:47:24.524Z,79.30
2017-08-18T10:49:52.188Z,79.30
2017-08-18T10:52:19.785Z,79.90
2017-08-18T10:54:47.394Z,80.00
2017-08-18T10:57:15.201Z,80.40
2017-08-18T10:59:48.904Z,80.80
2017-08-18T11:02:16.728Z,81.10
2017-08-18T11:04:44.335Z,81.40
2017-08-18T11:07:12.979Z,81.60
2017-08-18T11:09:41.590Z,81.70
2017-08-18T11:12:10.000Z,82.20
2017-08-18T11:14:37.737Z,82.10
2017-08-18T11:17:05.445Z,83.20
2017-08-18T11:19:33.883Z,83.20
2017-08-18T11:22:01.560Z,83.20
2017-08-18T11:24:29.237Z,83.50
2017-08-18T11:26:56.927Z,83.40
2017-08-18T11:29:24.594Z,83.90
2017-08-18T11:31:53.244Z,83.90
2017-08-18T11:34:21.083Z,83.90
2017-08-18T11:36:49.758Z,83.90
2017-08-18T11:39:17.706Z,83.90
2017-08-18T11:41:45.361Z,84.10
2017-08-18T11:44:12.960Z,84.10
2017-08-18T11:46:40.856Z,84.60
2017-08-18T11:49:08.492Z,84.70
2017-08-18T11:51:36.151Z,85.10
2017-08-18T11:54:03.796Z,85.10
2017-08-18T11:56:31.431Z,85.30
2017-08-18T11:58:59.033Z,84.70
2017-08-18T12:01:26.683Z,84.80
2017-08-18T12:03:54.359Z,84.90
2017-08-18T12:06:21.978Z,85.10
2017-08-18T12:08:49.819Z,85.40
2017-08-18T12:11:17.421Z,86.00
2017-08-18T12:13:45.002Z,86.10
2017-08-18T12:16:12.627Z,86.70
2017-08-18T12:18:40.983Z,87.20
2017-08-18T12:21:09.354Z,87.50
2017-08-18T12:23:37.771Z,87.40
2017-08-18T12:26:05.372Z,87.40
2017-08-18T12:28:32.972Z,87.50
2017-08-18T12:31:00.788Z,87.50
2017-08-18T12:33:28.390Z,87.00
2017-08-18T12:35:56.744Z,87.40
2017-08-18T12:38:24.384Z,87.30
2017-08-18T12:40:51.977Z,87.10
2017-08-18T12:43:19.564Z,86.90
2017-08-18T12:45:47.360Z,86.90
2017-08-18T12:48:14.935Z,86.30
2017-08-18T12:50:42.516Z,86.40
2017-08-18T12:53:10.924Z,86.40
2017-08-18T12:55:38.514Z,86.30
2017-08-18T12:58:06.122Z,86.50
2017-08-18T13:00:33.767Z,86.00
2017-08-18T13:03:01.368Z,84.80
2017-08-18T13:05:29.717Z,83.50
2017-08-18T13:07:57.370Z,82.90
2017-08-18T13:10:25.728Z,80.90
2017-08-18T13:12:53.319Z,80.90
2017-08-18T13:15:20.969Z,79.80
2017-08-18T13:17:48.567Z,78.10
2017-08-18T13:20:16.148Z,76.00
2017-08-18T13:22:43.763Z,76.00
2017-08-18T13:25:12.133Z,75.00
2017-08-18T13:27:40.466Z,74.40
2017-08-18T13:30:08.741Z,74.40
2017-08-18T13:32:36.316Z,74.60
2017-08-18T13:35:03.898Z,75.60
2017-08-18T13:37:31.513Z,75.40
2017-08-18T13:39:59.104Z,75.40
2017-08-18T13:42:26.684Z,75.90
2017-08-18T13:44:54.298Z,75.40
2017-08-18T13:47:21.863Z,75.30
2017-08-18T13:49:49.452Z,75.70
2017-08-18T13:52:17.081Z,75.30
2017-08-18T13:54:44.673Z,75.10
2017-08-18T13:57:12.453Z,75.10
2017-08-18T13:59:40.100Z,75.10
2017-08-18T14:02:08.436Z,75.80
2017-08-18T14:04:36.012Z,75.70
2017-08-18T14:07:03.643Z,76.10
2017-08-18T14:09:31.998Z,77.00
2017-08-18T14:12:00.367Z,75.80
2017-08-18T14:14:28.948Z,75.10
2017-08-18T14:16:56.532Z,75.00
2017-08-18T14:19:24.123Z,75.40
2017-08-18T14:21:51.742Z,76.20
2017-08-18T14:24:19.334Z,75.20
2017-08-18T14:26:52.644Z,75.70
2017-08-18T14:29:20.237Z,76.30
2017-08-18T14:31:48.589Z,76.70
2017-08-18T14:34:16.992Z,76.20
2017-08-18T14:36:44.576Z,76.20
2017-08-18T14:39:12.199Z,76.30
2017-08-18T14:41:39.826Z,77.20
2017-08-18T14:44:07.411Z,78.00
2017-08-18T14:46:35.002Z,77.90
2017-08-18T14:49:02.653Z,77.90
2017-08-18T14:51:30.226Z,78.00
2017-08-18T14:53:57.816Z,77.90
2017-08-18T14:56:25.427Z,77.60
2017-08-18T14:58:53.012Z,77.90
2017-08-18T15:01:20.599Z,77.40
2017-08-18T15:03:48.261Z,77.20
2017-08-18T15:06:15.831Z,77.00
2017-08-18T15:08:43.429Z,76.20
2017-08-18T15:11:11.069Z,75.30
2017-08-18T15:13:38.680Z,75.90
2017-08-18T15:16:06.263Z,76.10
2017-08-18T15:18:33.908Z,76.00
2017-08-18T15:21:01.500Z,75.60
2017-08-18T15:23:29.097Z,75.40
2017-08-18T15:25:56.748Z,75.40
2017-08-18T15:28:24.348Z,75.90
2017-08-18T15:30:51.946Z,76.30
2017-08-18T15:33:19.618Z,75.70
2017-08-18T15:35:47.990Z,76.20
2017-08-18T15:38:16.493Z,76.90
2017-08-18T15:40:44.198Z,76.80
2017-08-18T15:43:12.565Z,77.00
2017-08-18T15:45:40.913Z,77.40
2017-08-18T15:48:09.052Z,77.40
2017-08-18T15:50:36.832Z,77.80
2017-08-18T15:53:04.680Z,77.60
2017-08-18T15:55:32.399Z,77.80
2017-08-18T15:58:00.147Z,77.80
2017-08-18T16:00:27.819Z,77.50
2017-08-18T16:02:55.746Z,77.60
2017-08-18T16:05:23.428Z,77.80
2017-08-18T16:07:51.053Z,77.80
2017-08-18T16:10:18.743Z,77.30
2017-08-18T16:12:46.413Z,77.00
2017-08-18T16:15:14.268Z,77.50
2017-08-18T16:17:41.933Z,77.10
2017-08-18T16:20:09.665Z,77.70
2017-08-18T16:22:37.518Z,78.00
2017-08-18T16:25:05.234Z,77.90
2017-08-18T16:27:32.814Z,78.10
2017-08-18T16:30:00.456Z,78.50
2017-08-18T16:32:28.094Z,78.40
2017-08-18T16:34:55.695Z,78.80
2017-08-18T16:37:23.517Z,79.40
2017-08-18T16:39:51.727Z,79.50
2017-08-18T16:42:19.406Z,79.60
2017-08-18T16:44:47.364Z,79.80
2017-08-18T16:47:15.012Z,80.20
2017-08-18T16:49:42.675Z,80.60
2017-08-18T16:52:10.338Z,80.60
2017-08-18T16:54:38.001Z,80.70
2017-08-18T16:57:05.632Z,80.90
2017-08-18T16:59:33.676Z,81.40
2017-08-18T17:02:01.512Z,82.00
2017-08-18T17:04:29.457Z,82.40
2017-08-18T17:06:57.187Z,83.00
2017-08-18T17:09:24.892Z,83.30
2017-08-18T17:11:52.552Z,83.40
2017-08-18T17:14:20.273Z,84.00
2017-08-18T17:16:48.259Z,84.30
2017-08-18T17:19:15.920Z,84.80
2017-08-18T17:21:44.036Z,85.50
2017-08-18T17:24:11.728Z,86.00
2017-08-18T17:26:43.233Z,86.50
2017-08-18T17:29:11.064Z,86.80
2017-08-18T17:31:38.760Z,86.80
2017-08-18T17:34:06.975Z,86.90
2017-08-18T17:36:34.674Z,87.00
2017-08-18T17:39:02.684Z,87.00
2017-08-18T17:41:30.750Z,86.60
2017-08-18T17:43:59.484Z,86.90
2017-08-18T17:46:27.633Z,86.70
2017-08-18T17:48:55.664Z,86.90
2017-08-18T17:51:23.516Z,87.00
2017-08-18T17:53:51.500Z,87.30
2017-08-18T17:56:19.138Z,87.00
2017-08-18T17:58:47.843Z,86.90
2017-08-18T18:01:15.991Z,87.00
2017-08-18T18:03:44.409Z,87.50
2017-08-18T18:06:12.861Z,87.80
2017-08-18T18:08:41.129Z,87.90
2017-08-18T18:11:10.087Z,88.10
2017-08-18T18:13:39.791Z,88.30
2017-08-18T18:16:07.527Z,88.30
2017-08-18T18:18:35.731Z,88.50
2017-08-18T18:21:03.766Z,88.60
2017-08-18T18:23:31.496Z,88.50
2017-08-18T18:26:04.607Z,88.50
2017-08-18T18:28:32.851Z,88.60
2017-08-18T18:31:00.664Z,89.00
2017-08-18T18:33:28.845Z,89.50
2017-08-18T18:35:56.651Z,89.60
2017-08-18T18:38:24.435Z,89.50
2017-08-18T18:40:52.182Z,89.50
2017-08-18T18:43:19.802Z,89.60
2017-08-18T18:45:48.906Z,89.30
2017-08-18T18:48:16.549Z,88.50
2017-08-18T18:50:45.021Z,87.30
2017-08-18T18:53:13.077Z,87.30
2017-08-18T18:55:42.523Z,86.80
2017-08-18T18:58:10.660Z,86.60
2017-08-18T19:00:38.391Z,85.90
2017-08-18T19:03:06.269Z,86.40
2017-08-18T19:05:34.658Z,87.00
2017-08-18T19:08:02.426Z,86.90
2017-08-18T19:10:30.220Z,86.60
2017-08-18T19:12:58.637Z,86.80
2017-08-18T19:15:26.561Z,87.00
2017-08-18T19:17:54.415Z,86.90
2017-08-18T19:20:22.115Z,86.50
2017-08-18T19:22:51.173Z,86.50
2017-08-18T19:25:18.826Z,86.90
2017-08-18T19:27:46.462Z,87.20
2017-08-18T19:30:14.062Z,87.40
2017-08-18T19:32:41.695Z,87.40
2017-08-18T19:35:09.599Z,88.00
2017-08-18T19:37:37.267Z,88.00
2017-08-18T19:40:05.000Z,87.80
2017-08-18T19:42:32.694Z,87.70
2017-08-18T19:45:00.388Z,87.50
2017-08-18T19:47:29.026Z,88.00
2017-08-18T19:49:56.705Z,87.90
2017-08-18T19:52:24.924Z,88.20
2017-08-18T19:54:52.787Z,88.10
2017-08-18T19:57:20.450Z,88.50
2017-08-18T19:59:48.244Z,88.30
2017-08-18T20:02:15.917Z,88.40
2017-08-18T20:04:43.733Z,88.30
2017-08-18T20:07:11.412Z,88.30
2017-08-18T20:09:39.013Z,88.30
2017-08-18T20:12:06.640Z,88.40
2017-08-18T20:14:34.210Z,88.20
2017-08-18T20:17:02.581Z,87.90
2017-08-18T20:19:31.000Z,88.20
2017-08-18T20:21:58.574Z,88.20
2017-08-18T20:24:26.930Z,88.50
2017-08-18T20:26:55.343Z,88.50
2017-08-18T20:29:22.938Z,88.50
2017-08-18T20:31:50.533Z,88.40
2017-08-18T20:34:18.186Z,88.70
2017-08-18T20:36:45.778Z,88.90
2017-08-18T20:39:14.134Z,89.00
2017-08-18T20:41:41.764Z,89.00
2017-08-18T20:44:09.354Z,89.00
2017-08-18T20:46:36.937Z,88.90
2017-08-18T20:49:04.582Z,89.20
2017-08-18T20:51:32.222Z,88.90
2017-08-18T20:53:59.804Z,89.20
2017-08-18T20:56:28.199Z,89.20
2017-08-18T20:58:55.785Z,89.20
2017-08-18T21:01:23.378Z,89.30
2017-08-18T21:03:51.042Z,89.20
2017-08-18T21:06:18.611Z,89.50
2017-08-18T21:08:46.200Z,89.60
2017-08-18T21:11:14.605Z,90.00
2017-08-18T21:13:42.187Z,90.00
2017-08-18T21:16:09.761Z,90.00
2017-08-18T21:18:37.409Z,90.00
2017-08-18T21:21:05.012Z,90.10
2017-08-18T21:23:32.614Z,90.20
2017-08-18T21:26:00.370Z,90.20
2017-08-18T21:28:27.953Z,90.30
2017-08-18T21:30:55.547Z,90.30
2017-08-18T21:33:23.206Z,90.30
2017-08-18T21:35:50.804Z,90.20
2017-08-18T21:38:19.156Z,90.30
2017-08-18T21:40:46.891Z,90.30
2017-08-18T21:43:14.486Z,90.30
2017-08-18T21:45:42.075Z,90.30
2017-08-18T21:48:09.731Z,90.50
2017-08-18T21:50:37.307Z,90.30
2017-08-18T21:53:04.914Z,90.40
2017-08-18T21:55:32.573Z,90.40
2017-08-18T21:58:00.156Z,90.40
2017-08-18T22:00:27.763Z,90.40
2017-08-18T22:02:56.191Z,90.60
2017-08-18T22:05:23.784Z,90.50
2017-08-18T22:07:52.134Z,90.60
2017-08-18T22:10:19.754Z,90.60
2017-08-18T22:12:47.344Z,90.70
2017-08-18T22:15:14.937Z,90.60
2017-08-18T22:17:42.588Z,90.80
2017-08-18T22:20:10.243Z,90.90
2017-08-18T22:22:38.617Z,91.30
2017-08-18T22:25:06.404Z,90.90
2017-08-18T22:27:33.996Z,91.00
2017-08-18T22:30:01.589Z,91.20
2017-08-18T22:32:29.237Z,91.10
2017-08-18T22:34:56.846Z,91.10
2017-08-18T22:37:24.436Z,91.20
2017-08-18T22:39:52.076Z,91.30
2017-08-18T22:42:19.655Z,91.20
2017-08-18T22:44:47.235Z,91.20
2017-08-18T22:47:15.636Z,91.20
2017-08-18T22:49:43.220Z,91.20
2017-08-18T22:52:10.826Z,91.30
2017-08-18T22:54:38.465Z,91.20
2017-08-18T22:57:06.052Z,91.10
2017-08-18T22:59:33.660Z,91.20
2017-08-18T23:02:01.305Z,91.20
2017-08-18T23:04:28.924Z,91.20
2017-08-18T23:06:56.524Z,91.10
2017-08-18T23:09:24.177Z,91.10
2017-08-18T23:11:51.784Z,91.10
2017-08-18T23:14:19.376Z,91.10
2017-08-18T23:16:47.011Z,91.00
2017-08-18T23:19:14.608Z,91.10
2017-08-18T23:21:42.204Z,91.10
2017-08-18T23:24:09.866Z,91.10
2017-08-18T23:26:37.460Z,91.00
2017-08-18T23:29:05.048Z,91.10
2017-08-18T23:31:32.707Z,91.10
2017-08-18T23:34:00.314Z,91.20
2017-08-18T23:36:27.972Z,91.00
2017-08-18T23:38:55.713Z,91.00
2017-08-18T23:41:23.300Z,90.90
2017-08-18T23:43:51.484Z,90.90
2017-08-18T23:46:19.270Z,90.90
2017-08-18T23:48:46.868Z,90.80
2017-08-18T23:51:14.447Z,90.90
2017-08-18T23:53:42.071Z,90.80
2017-08-18T23:56:09.675Z,90.90
2017-08-18T23:58:38.043Z,90.60
